x

Ne Bahamas - 350 Nm Ene Of Nassau, Bahamas (41047) Wave Buoy

11:50pm - Tue 3rd Mar 2015 All times are UTC.

  • Sig Wave height 5.9ft
  • Swell Direction
  • Peak Period 10s
  • Average Period 6s
  • Wind
    16mph, 18mph gusts
  • Sea Temp 74°f
  • Air Temp 71°f
  • Sea Pressure 1023.4mb

More Historic Weather Station data

Upgrade to MSW Pro to gain access to the past 30 days of data for over 8000 Wavebouys and Weather Stations around the globe.

Join Pro

Comparision Forecast

View Surf forecast
   
Tue 03/03 11:50pm 6ft 10s 6s 16 18 mph 1023.4mb 74f 71f
10:50pm 5ft 9s 7s 16 18 mph 1022.8mb 74f 71f
9:50pm 5.5ft 10s 7s 13 16 mph 1022.8mb 74f 71f
8:50pm 5ft 10s 7s 13 16 mph 1022.5mb 74f 72f
7:50pm 4.5ft 9s 7s 11 16 mph 1022.7mb 74f 72f
6:50pm 5ft 10s 7s 11
mph
1022.9mb 74f 71f
5:50pm 5ft 9s 8s 11 13 mph 1023.3mb 75f 69f
4:50pm 5ft 9s 8s 4
mph
1024.1mb 76f 73f
3:50pm 5.5ft 10s 8s 2 4 mph 1024.7mb 75f 72f
2:50pm 5.5ft 9s 8s 2 4 mph 1024.6mb 74f 72f
1:50pm 5ft 9s 8s  -  2 mph 1024.1mb 74f 72f
12:50pm 5.5ft 9s 8s 2 4 mph 1023.6mb 73f 72f
11:50am 6ft 9s 8s 2 4 mph 1022.9mb 73f 71f
10:50am 5ft 8s 7s 7
mph
1022.5mb 73f 71f
9:50am 5ft 8s 7s 7 9 mph 1021.8mb 73f 71f
8:50am 5.5ft 8s 7s 2 4 mph 1021.2mb 73f 71f
7:50am 5ft 8s 7s 2 4 mph 1021.5mb 73f 71f
6:50am 5ft 9s 7s 4 7 mph 1022.1mb 74f 71f
5:50am 5ft 9s 7s 4
mph
1022.8mb 73f 71f
4:50am 5.5ft 9s 7s 7 9 mph 1023.4mb 74f 72f
3:50am 6ft 9s 7s 7
mph
1023.8mb 74f 72f
2:50am 6ft 9s 7s 4 7 mph 1023.9mb 74f 72f
1:50am 5.5ft 10s 7s 4 7 mph 1023.8mb 74f 72f
12:50am 6ft 9s 7s 7 9 mph 1023.9mb 74f 72f
Mon 03/02 11:50pm 5.5ft 8s 7s 7 9 mph 1023.3mb 74f 72f
10:50pm 6ft 9s 7s 4 7 mph 1022.8mb 75f 73f
9:50pm 5.5ft 9s 7s 2 4 mph 1022.8mb 75f 74f
8:50pm 6ft 8s 7s 2 4 mph 1023mb 76f 74f
7:50pm 6ft 9s 7s 2 4 mph 1023mb 76f 73f
6:50pm 6ft 9s 7s 2 4 mph 1023.4mb 76f 73f
5:50pm 6ft 9s 7s 2 4 mph 1024.1mb 75f 73f
4:50pm 5.5ft 8s 7s 2 4 mph 1025.2mb 74f 73f
3:50pm 6ft 9s 7s 4 7 mph 1025.8mb 74f 73f
2:50pm 6ft 9s 7s 4 7 mph 1026.3mb 74f 73f
1:50pm 6ft 9s 7s 7 9 mph 1026.3mb 73f 73f
12:50pm 7ft 10s 7s 9 11 mph 1025.6mb 73f 73f
11:50am 6ft 9s 7s 7 9 mph 1025.7mb 73f 73f
10:50am 6ft 10s 7s 9 11 mph 1025mb 73f 73f
9:50am 6ft 9s 6s 11 13 mph 1024.5mb 73f 73f
8:50am 7ft 9s 7s 13 16 mph 1024.1mb 73f 73f
7:50am 7ft 10s 6s 11 13 mph 1024.7mb 73f 73f
6:50am 7ft 9s 7s 13 18 mph 1025.4mb 73f 73f
5:50am 7.5ft 10s 7s 16 18 mph 1026.5mb 73f 73f
4:50am 7ft 10s 6s 13 16 mph 1027.1mb 73f 73f
3:50am 7.5ft 10s 6s 13 16 mph 1027.4mb 74f 73f
2:50am 8ft 9s 7s 16 18 mph 1027.5mb 74f 73f
1:50am 8ft 9s 7s 16 18 mph 1027.5mb 74f 73f
12:50am 8ft 9s 7s 16 20 mph 1027mb 74f 73f
Sun 03/01 11:50pm 8ft 10s 7s 16 18 mph 1026.9mb 74f 71f
10:50pm 9ft 10s 7s 13 20 mph 1026.6mb 74f 71f
9:50pm 8ft 10s 7s 16 18 mph 1026.5mb 74f 72f
8:50pm 9ft 10s 7s 13 18 mph 1026.3mb 74f 72f
7:50pm 9ft 10s 7s 16 20 mph 1026.4mb 74f 72f
6:50pm 8ft 9s 7s 16 18 mph 1026.5mb 74f 72f
5:50pm 8ft 10s 7s 16 18 mph 1027.1mb 74f 73f
3:50pm 7.5ft 10s 7s 11 16 mph 1028.3mb 73f 73f
2:50pm 7ft 10s 6s 13 16 mph 1028.4mb 73f 73f
1:50pm 7ft 9s 6s 13 16 mph 1028.5mb 73f 73f
12:50pm 7ft 10s 6s 16 20 mph 1027.9mb 73f 73f
11:50am 7ft 8s 6s 18 20 mph 1027.3mb 73f 72f
10:50am 7.5ft 9s 6s 18 20 mph 1026.9mb 73f 72f
9:50am 7ft 8s 6s 13 18 mph 1026.6mb 73f 71f
8:50am 7ft 8s 6s 16 18 mph 1026.4mb 74f 71f
7:50am 7ft 8s 6s 16 18 mph 1026.4mb 74f 71f
6:50am 7ft 8s 6s 13 16 mph 1026.9mb 74f 72f
5:50am 6.5ft 8s 6s 9 11 mph 1027.5mb 74f 73f
4:50am 6ft 10s 6s 9 11 mph 1027.8mb 74f 74f
3:50am 6ft 10s 7s 9 11 mph 1028mb 74f 74f
2:50am 5ft 7s 6s 9 11 mph 1028mb 75f 74f
1:50am 5.5ft 8s 6s 9 11 mph 1027.6mb 75f 74f
12:50am 5ft 8s 6s 9 11 mph 1027.2mb 75f 74f
Sat 02/28 11:50pm 5.5ft 10s 7s 9 11 mph 1026.5mb 76f 74f
10:50pm 5ft 10s 7s 9
mph
1026.1mb 76f 74f
9:50pm 5.5ft 10s 7s 7 9 mph 1025.6mb 76f 75f
8:50pm 5ft 9s 6s 4 7 mph 1025.2mb 76f 75f
7:50pm 6ft 10s 7s 4 7 mph 1025.2mb 76f 74f
6:50pm 5.5ft 10s 7s 4 7 mph 1025.3mb 76f 74f
5:50pm 5.5ft 10s 7s 7
mph
1025.7mb 75f 74f
4:50pm 5.5ft 11s 7s 7 9 mph 1026.3mb 75f 74f
3:50pm 5.5ft 11s 7s 7 9 mph 1026.6mb 75f 74f
2:50pm 5ft 11s 7s 9 11 mph 1026.5mb 75f 74f
1:50pm 5.5ft 11s 7s 9 11 mph 1026.3mb 74f 74f
12:50pm 5.5ft 10s 7s 9 11 mph 1026mb 74f 74f
11:50am 5.5ft 11s 7s 9 11 mph 1024.9mb 74f 74f
10:50am 5ft 11s 7s 11 13 mph 1023.8mb 74f 74f
9:50am 5ft 7s 7s 9 11 mph 1023.5mb 74f 74f
8:50am 5ft 9s 7s 11 13 mph 1023.1mb 74f 74f
7:50am 5ft 7s 7s 9 11 mph 1023mb 74f 74f
6:50am 5ft 12s 7s 9 11 mph 1023.2mb 74f 74f
5:50am 5ft 12s 7s 7 9 mph 1023.7mb 74f 74f
4:50am 4.5ft 7s 6s 4 7 mph 1023.9mb 74f 74f
3:50am 4.5ft 7s 6s 7
mph
1024.1mb 74f 74f
2:50am 4.5ft 8s 6s 4
mph
1024mb 74f 74f
1:50am 4.5ft 6s 6s 4
mph
1023.9mb 74f 74f